CMA CGM Berlioz — C6CP5 — position and weather

sailwx.info

Track history (hours):
 
Tides and Currents Weather Stations Pressure Air Temp Water Temp Dewpoint Dewpoint Depression Visibility Wind Speed Wind Dir Waves Ship Positions

CMA CGM Berlioz

Last reported at 2018-Jan-01 03:39 UTC. Time now 2018-Jan-21 08:39 UTC.
Position N 36°30' E 026°43'.
Warning: this ship's position is 20 days out of date.

Length 299 m; draft 14.2 m.

Type: Ship (hazmat cat B). MMSI: 311000536.

Date/timePositionNaut miles runAvg speedWind from/ knotsBaromVisibWave heightAir tempDewpointWater temp
2018-Jan-01 03:39N 36°30' E 026°43'417.1
2018-Jan-01 03:26N 36°33' E 026°40'1316.7
2018-Jan-01 02:39N 36°43' E 026°29'217.2
2018-Jan-01 02:31N 36°45' E 026°27'917.5
2018-Jan-01 02:01N 36°51' E 026°20'1117.0
2018-Jan-01 01:21N 36°60' E 026°11'1417.1
2018-Jan-01 00:31N 37°12' E 026°03'  
2017-Dec-27 07:17N 37°37' E 024°06'621.0
2017-Dec-27 07:00N 37°37' E 023°59'1121.0
2017-Dec-27 06:30N 37°39' E 023°45'919.3
2017-Dec-27 06:00N 37°47' E 023°39'917.7
2017-Dec-27 05:30N 37°55' E 023°37'3 5.1
2017-Dec-27 05:00N 37°57' E 023°35'0 0.5
2017-Dec-27 04:30N 37°57' E 023°35'0 0.0
2017-Dec-27 04:00N 37°57' E 023°35'0 0.0
2017-Dec-27 03:30N 37°57' E 023°35'0 0.0
2017-Dec-27 03:00N 37°57' E 023°35'0 0.0
2017-Dec-27 02:29N 37°57' E 023°35'0 0.0
2017-Dec-27 01:59N 37°57' E 023°35'0 0.0
2017-Dec-27 01:28N 37°57' E 023°35'0 0.0
2017-Dec-27 00:59N 37°57' E 023°35'0 0.0
2017-Dec-27 00:30N 37°57' E 023°35'0 0.0
2017-Dec-26 23:59N 37°57' E 023°35'0 0.0
2017-Dec-26 23:31N 37°57' E 023°35'0 0.0
2017-Dec-26 23:00N 37°57' E 023°35'0 0.0
2017-Dec-26 22:30N 37°57' E 023°35'0 0.0
2017-Dec-26 21:58N 37°57' E 023°35'0 0.0
2017-Dec-26 21:29N 37°57' E 023°35'0 0.0
2017-Dec-26 21:00N 37°57' E 023°35'0 0.0
2017-Dec-26 20:30N 37°57' E 023°35'0 0.0
2017-Dec-26 20:00N 37°57' E 023°35'0 0.0
2017-Dec-26 19:25N 37°57' E 023°35'0 0.0
2017-Dec-26 18:58N 37°57' E 023°35'0 0.0
2017-Dec-26 18:30N 37°57' E 023°35'0 0.0
2017-Dec-26 17:59N 37°57' E 023°35'0 0.0
2017-Dec-26 17:30N 37°57' E 023°35'0 0.0
2017-Dec-26 17:00N 37°57' E 023°35'0 0.0
2017-Dec-26 16:29N 37°57' E 023°35'0 0.0
2017-Dec-26 15:59N 37°57' E 023°35'0 0.0
2017-Dec-26 15:28N 37°57' E 023°35'0 0.0
2017-Dec-26 14:59N 37°57' E 023°35'0 0.0
2017-Dec-26 14:29N 37°57' E 023°35'0 0.0
2017-Dec-26 13:59N 37°57' E 023°35'0 0.0
2017-Dec-26 13:29N 37°57' E 023°35'0 0.0
2017-Dec-26 12:59N 37°57' E 023°35'0 0.0
2017-Dec-26 12:30N 37°57' E 023°35'0 0.0
2017-Dec-26 11:57N 37°57' E 023°35'0 0.0
2017-Dec-26 11:27N 37°57' E 023°35'0 0.0
2017-Dec-26 11:00N 37°57' E 023°35'0 0.0
2017-Dec-26 10:30N 37°57' E 023°35'0 0.0
2017-Dec-26 09:59N 37°57' E 023°35'0 0.0
2017-Dec-26 09:29N 37°57' E 023°35'0 0.0
2017-Dec-26 08:59N 37°57' E 023°35'0 0.0
2017-Dec-26 08:29N 37°57' E 023°35'0 0.0
2017-Dec-26 07:59N 37°57' E 023°35'0 0.0
2017-Dec-26 07:29N 37°57' E 023°35'0 0.0
2017-Dec-26 06:58N 37°57' E 023°35'0 0.0
2017-Dec-26 06:28N 37°57' E 023°35'0 0.4
2017-Dec-26 06:00N 37°57' E 023°35'2 4.3
2017-Dec-26 05:30N 37°55' E 023°34'0 0.3
2017-Dec-26 05:00N 37°55' E 023°35'1 2.6
2017-Dec-26 04:30N 37°54' E 023°36'3 5.0
2017-Dec-26 04:00N 37°52' E 023°38'2 3.9
2017-Dec-26 03:30N 37°51' E 023°39'3 5.6
2017-Dec-26 03:00N 37°48' E 023°41'3 5.8
2017-Dec-26 02:30N 37°45' E 023°43'4 7.8
2017-Dec-26 02:00N 37°42' E 023°45'812.7
2017-Dec-26 01:22N 37°34' E 023°48'612.7
2017-Dec-26 00:54N 37°28' E 023°50'1812.4
2017-Dec-25 23:27N 37°16' E 024°06'612.9
2017-Dec-25 23:00N 37°11' E 024°11'712.9
2017-Dec-25 22:30N 37°07' E 024°17'613.0
2017-Dec-25 22:00N 37°03' E 024°23'612.9
2017-Dec-25 21:30N 36°59' E 024°29'612.9
2017-Dec-25 21:00N 36°55' E 024°36'612.8
2017-Dec-25 20:30N 36°51' E 024°42'612.4
2017-Dec-25 20:00N 36°50' E 024°50'612.6
2017-Dec-25 19:30N 36°50' E 024°58'612.8
2017-Dec-25 19:00N 36°49' E 025°06'612.7
2017-Dec-25 18:30N 36°49' E 025°13'612.6
2017-Dec-25 18:00N 36°49' E 025°21'612.9
2017-Dec-25 17:30N 36°46' E 025°29'612.7
2017-Dec-25 17:00N 36°43' E 025°36'612.7
2017-Dec-25 16:30N 36°40' E 025°43'612.6
2017-Dec-25 16:00N 36°37' E 025°50'612.6
2017-Dec-25 15:30N 36°34' E 025°56'612.7
2017-Dec-25 15:00N 36°30' E 026°02'612.8
2017-Dec-25 14:30N 36°26' E 026°09'612.7
2017-Dec-25 14:00N 36°22' E 026°15'612.5
2017-Dec-25 13:30N 36°18' E 026°21'612.3
2017-Dec-25 13:00N 36°14' E 026°27'612.1
2017-Dec-25 12:30N 36°12' E 026°34'  
Track history (hours):
 
Tides and Currents Weather Stations Pressure Air Temp Water Temp Dewpoint Dewpoint Depression Visibility Wind Speed Wind Dir Waves Ship Positions

CMA CGM Berlioz

Last reported at 2018-Jan-01 03:39 UTC. Time now 2018-Jan-21 08:39 UTC.
Position N 36°30' E 026°43'.
Warning: this ship's position is 20 days out of date.

Length 299 m; draft 14.2 m.

Type: Ship (hazmat cat B). MMSI: 311000536.

Date/timePositionNaut miles runAvg speedWind from/ knotsBaromVisibWave heightAir tempDewpointWater temp
2018-Jan-01 03:39N 36°30' E 026°43'417.1
2018-Jan-01 03:26N 36°33' E 026°40'1316.7
2018-Jan-01 02:39N 36°43' E 026°29'217.2
2018-Jan-01 02:31N 36°45' E 026°27'917.5
2018-Jan-01 02:01N 36°51' E 026°20'1117.0
2018-Jan-01 01:21N 36°60' E 026°11'1417.1
2018-Jan-01 00:31N 37°12' E 026°03'  
2017-Dec-27 07:17N 37°37' E 024°06'621.0
2017-Dec-27 07:00N 37°37' E 023°59'1121.0
2017-Dec-27 06:30N 37°39' E 023°45'919.3
2017-Dec-27 06:00N 37°47' E 023°39'917.7
2017-Dec-27 05:30N 37°55' E 023°37'3 5.1
2017-Dec-27 05:00N 37°57' E 023°35'0 0.5
2017-Dec-27 04:30N 37°57' E 023°35'0 0.0
2017-Dec-27 04:00N 37°57' E 023°35'0 0.0
2017-Dec-27 03:30N 37°57' E 023°35'0 0.0
2017-Dec-27 03:00N 37°57' E 023°35'0 0.0
2017-Dec-27 02:29N 37°57' E 023°35'0 0.0
2017-Dec-27 01:59N 37°57' E 023°35'0 0.0
2017-Dec-27 01:28N 37°57' E 023°35'0 0.0
2017-Dec-27 00:59N 37°57' E 023°35'0 0.0
2017-Dec-27 00:30N 37°57' E 023°35'0 0.0
2017-Dec-26 23:59N 37°57' E 023°35'0 0.0
2017-Dec-26 23:31N 37°57' E 023°35'0 0.0
2017-Dec-26 23:00N 37°57' E 023°35'0 0.0
2017-Dec-26 22:30N 37°57' E 023°35'0 0.0
2017-Dec-26 21:58N 37°57' E 023°35'0 0.0
2017-Dec-26 21:29N 37°57' E 023°35'0 0.0
2017-Dec-26 21:00N 37°57' E 023°35'0 0.0
2017-Dec-26 20:30N 37°57' E 023°35'0 0.0
2017-Dec-26 20:00N 37°57' E 023°35'0 0.0
2017-Dec-26 19:25N 37°57' E 023°35'0 0.0
2017-Dec-26 18:58N 37°57' E 023°35'0 0.0
2017-Dec-26 18:30N 37°57' E 023°35'0 0.0
2017-Dec-26 17:59N 37°57' E 023°35'0 0.0
2017-Dec-26 17:30N 37°57' E 023°35'0 0.0
2017-Dec-26 17:00N 37°57' E 023°35'0 0.0
2017-Dec-26 16:29N 37°57' E 023°35'0 0.0
2017-Dec-26 15:59N 37°57' E 023°35'0 0.0
2017-Dec-26 15:28N 37°57' E 023°35'0 0.0
2017-Dec-26 14:59N 37°57' E 023°35'0 0.0
2017-Dec-26 14:29N 37°57' E 023°35'0 0.0
2017-Dec-26 13:59N 37°57' E 023°35'0 0.0
2017-Dec-26 13:29N 37°57' E 023°35'0 0.0
2017-Dec-26 12:59N 37°57' E 023°35'0 0.0
2017-Dec-26 12:30N 37°57' E 023°35'0 0.0
2017-Dec-26 11:57N 37°57' E 023°35'0 0.0
2017-Dec-26 11:27N 37°57' E 023°35'0 0.0
2017-Dec-26 11:00N 37°57' E 023°35'0 0.0
2017-Dec-26 10:30N 37°57' E 023°35'0 0.0
2017-Dec-26 09:59N 37°57' E 023°35'0 0.0
2017-Dec-26 09:29N 37°57' E 023°35'0 0.0
2017-Dec-26 08:59N 37°57' E 023°35'0 0.0
2017-Dec-26 08:29N 37°57' E 023°35'0 0.0
2017-Dec-26 07:59N 37°57' E 023°35'0 0.0
2017-Dec-26 07:29N 37°57' E 023°35'0 0.0
2017-Dec-26 06:58N 37°57' E 023°35'0 0.0
2017-Dec-26 06:28N 37°57' E 023°35'0 0.4
2017-Dec-26 06:00N 37°57' E 023°35'2 4.3
2017-Dec-26 05:30N 37°55' E 023°34'0 0.3
2017-Dec-26 05:00N 37°55' E 023°35'1 2.6
2017-Dec-26 04:30N 37°54' E 023°36'3 5.0
2017-Dec-26 04:00N 37°52' E 023°38'2 3.9
2017-Dec-26 03:30N 37°51' E 023°39'3 5.6
2017-Dec-26 03:00N 37°48' E 023°41'3 5.8
2017-Dec-26 02:30N 37°45' E 023°43'4 7.8
2017-Dec-26 02:00N 37°42' E 023°45'812.7
2017-Dec-26 01:22N 37°34' E 023°48'612.7
2017-Dec-26 00:54N 37°28' E 023°50'1812.4
2017-Dec-25 23:27N 37°16' E 024°06'612.9
2017-Dec-25 23:00N 37°11' E 024°11'712.9
2017-Dec-25 22:30N 37°07' E 024°17'613.0
2017-Dec-25 22:00N 37°03' E 024°23'612.9
2017-Dec-25 21:30N 36°59' E 024°29'612.9
2017-Dec-25 21:00N 36°55' E 024°36'612.8
2017-Dec-25 20:30N 36°51' E 024°42'612.4
2017-Dec-25 20:00N 36°50' E 024°50'612.6
2017-Dec-25 19:30N 36°50' E 024°58'612.8
2017-Dec-25 19:00N 36°49' E 025°06'612.7
2017-Dec-25 18:30N 36°49' E 025°13'612.6
2017-Dec-25 18:00N 36°49' E 025°21'612.9
2017-Dec-25 17:30N 36°46' E 025°29'612.7
2017-Dec-25 17:00N 36°43' E 025°36'612.7
2017-Dec-25 16:30N 36°40' E 025°43'612.6
2017-Dec-25 16:00N 36°37' E 025°50'612.6
2017-Dec-25 15:30N 36°34' E 025°56'612.7
2017-Dec-25 15:00N 36°30' E 026°02'612.8
2017-Dec-25 14:30N 36°26' E 026°09'612.7
2017-Dec-25 14:00N 36°22' E 026°15'612.5
2017-Dec-25 13:30N 36°18' E 026°21'612.3
2017-Dec-25 13:00N 36°14' E 026°27'612.1
2017-Dec-25 12:30N 36°12' E 026°34'  

Dump ship's entire track history